Time;durP1;ratioP1;P1;durP2;ratioP2;P2;SDS_P1;SDS_P2;PMS_P1;PMS_P2;Temp;Humidity;BMP_temperature;BMP_pressure;BME280_temperature;BME280_humidity;BME280_pressure;Samples;Min_cycle;Max_cycle;Signal;HPM_P1;HPM_P2
2023/09/11 00:00:26;;;;;;;1999.90;999.90;;;20.90;99.90;;;;;;5074525;28;20032;-80
2023/09/11 00:02:52;;;;;;;1999.90;999.90;;;20.90;99.90;;;;;;5092487;28;20031;-80
2023/09/11 00:05:17;;;;;;;1999.90;999.90;;;20.90;99.90;;;;;;5077253;28;20045;-80
2023/09/11 00:07:43;;;;;;;1999.90;999.90;;;20.90;99.90;;;;;;5090847;28;20109;-74
2023/09/11 00:10:09;;;;;;;1999.90;999.90;;;20.90;99.90;;;;;;5056003;28;20029;-75
2023/09/11 00:12:34;;;;;;;1999.90;999.90;;;20.90;99.90;;;;;;5075786;28;20033;-80
2023/09/11 00:15:00;;;;;;;1999.90;999.90;;;20.80;99.90;;;;;;5080223;28;20066;-80
2023/09/11 00:17:26;;;;;;;1999.90;999.90;;;20.80;99.90;;;;;;5079845;28;20421;-74
2023/09/11 00:19:52;;;;;;;1999.90;999.90;;;20.80;99.90;;;;;;5075720;28;20481;-74
2023/09/11 00:22:17;;;;;;;1999.90;999.90;;;20.80;99.90;;;;;;5074493;28;20033;-80
2023/09/11 00:24:43;;;;;;;1999.90;999.90;;;20.80;99.90;;;;;;5084127;28;20030;-74
2023/09/11 00:27:09;;;;;;;1999.90;999.90;;;20.80;99.90;;;;;;5094584;28;20505;-80
2023/09/11 00:29:34;;;;;;;1999.90;999.90;;;20.80;99.90;;;;;;5095763;28;20028;-74
2023/09/11 00:32:01;;;;;;;1999.90;999.90;;;20.70;99.90;;;;;;5095660;28;20039;-74
2023/09/11 00:34:26;;;;;;;1999.90;999.90;;;20.70;99.90;;;;;;5088081;28;20499;-80
2023/09/11 00:36:52;;;;;;;1999.90;999.90;;;20.70;99.90;;;;;;5075096;28;20081;-74
2023/09/11 00:39:18;;;;;;;1999.90;999.90;;;20.70;99.90;;;;;;5075490;28;20451;-80
2023/09/11 00:41:43;;;;;;;1999.90;999.90;;;20.70;99.90;;;;;;5075376;28;20490;-80
2023/09/11 00:44:09;;;;;;;1999.90;999.90;;;20.70;99.90;;;;;;5075242;28;20024;-74
2023/09/11 00:46:35;;;;;;;1999.90;999.90;;;20.60;99.90;;;;;;5074921;28;20077;-80
2023/09/11 00:49:01;;;;;;;1999.90;999.90;;;20.60;99.90;;;;;;5073827;28;20035;-80
2023/09/11 00:51:27;;;;;;;1999.90;999.90;;;20.60;99.90;;;;;;5075501;28;20021;-74
2023/09/11 00:53:54;;;;;;;1999.90;999.90;;;20.60;99.90;;;;;;5075204;28;20032;-74
2023/09/11 00:56:19;;;;;;;1999.90;999.90;;;20.60;99.90;;;;;;5075180;28;20036;-74
2023/09/11 00:58:46;;;;;;;1999.90;999.90;;;20.60;99.90;;;;;;5085989;28;20027;-74
2023/09/11 01:01:12;;;;;;;1999.90;999.90;;;20.60;99.90;;;;;;5094384;28;20029;-82
2023/09/11 01:03:38;;;;;;;1999.90;999.90;;;20.50;99.90;;;;;;5093322;28;20488;-80
2023/09/11 01:06:04;;;;;;;1999.90;999.90;;;20.60;99.90;;;;;;5102221;28;20043;-80
2023/09/11 01:08:30;;;;;;;1999.90;999.90;;;20.60;99.90;;;;;;5096935;28;20024;-74
2023/09/11 01:10:56;;;;;;;1999.90;999.90;;;20.50;99.90;;;;;;5073261;28;20020;-74
2023/09/11 01:13:23;;;;;;;1999.90;999.90;;;20.50;99.90;;;;;;5074904;28;20375;-80
2023/09/11 01:16:20;;;;;;;1999.90;999.90;;;20.50;99.90;;;;;;5081012;28;20021;-75
2023/09/11 01:18:59;;;;;;;1999.90;999.90;;;20.40;99.90;;;;;;5079725;28;20395;-80
2023/09/11 01:21:52;;;;;;;1999.90;999.90;;;20.40;99.90;;;;;;5094933;28;20035;-75
2023/09/11 01:24:49;;;;;;;1999.90;999.90;;;20.40;99.90;;;;;;5094635;28;20439;-74
2023/09/11 01:27:33;;;;;;;1999.90;999.90;;;20.30;99.90;;;;;;5094567;28;20028;-80
2023/09/11 01:30:01;;;;;;;1999.90;999.90;;;20.30;99.90;;;;;;5094501;28;20028;-80
2023/09/11 01:32:28;;;;;;;1999.90;999.90;;;20.30;99.90;;;;;;5093261;28;20479;-80
2023/09/11 01:34:54;;;;;;;1999.90;999.90;;;20.30;99.90;;;;;;5094219;28;20031;-74
2023/09/11 01:37:20;;;;;;;1999.90;999.90;;;20.30;99.90;;;;;;5094478;28;20398;-74
2023/09/11 01:39:45;;;;;;;1999.90;999.90;;;20.30;99.90;;;;;;5094309;28;20031;-80
2023/09/11 01:42:15;;;;;;;1999.90;999.90;;;20.30;99.90;;;;;;5094491;28;20035;-80
2023/09/11 01:44:46;;;;;;;1999.90;999.90;;;20.30;99.90;;;;;;5094178;28;20020;-80
2023/09/11 01:47:21;;;;;;;1999.90;999.90;;;20.30;99.90;;;;;;5094175;28;20024;-74
2023/09/11 01:49:48;;;;;;;1999.90;999.90;;;20.30;99.90;;;;;;5094258;28;20016;-74
2023/09/11 01:52:16;;;;;;;1999.90;999.90;;;20.30;99.90;;;;;;5094284;28;20028;-80
2023/09/11 01:54:43;;;;;;;1999.90;999.90;;;20.30;99.90;;;;;;5092761;28;20502;-74
2023/09/11 01:57:09;;;;;;;1999.90;999.90;;;20.30;99.90;;;;;;5092141;28;20114;-78
2023/09/11 01:59:35;;;;;;;1999.90;999.90;;;20.40;99.90;;;;;;5084800;28;20048;-80
2023/09/11 02:02:01;;;;;;;1999.90;999.90;;;20.50;99.90;;;;;;5074928;28;20056;-74
2023/09/11 02:04:26;;;;;;;1999.90;999.90;;;20.50;99.90;;;;;;5073505;28;20505;-79
2023/09/11 02:06:52;;;;;;;1999.90;999.90;;;20.70;99.90;;;;;;5084861;28;20162;-80
2023/09/11 02:09:18;;;;;;;1999.90;999.90;;;21.10;99.90;;;;;;5088835;28;20061;-80
2023/09/11 02:11:43;;;;;;;1999.90;999.90;;;21.50;99.90;;;;;;5080258;28;20033;-80
2023/09/11 02:14:09;;;;;;;1999.90;999.90;;;21.60;99.90;;;;;;5078179;28;20039;-79
2023/09/11 02:16:35;;;;;;;1999.90;999.90;;;22.10;99.90;;;;;;5082056;28;20534;-74
2023/09/11 02:19:00;;;;;;;1999.90;999.90;;;22.40;99.90;;;;;;5093766;28;20441;-80
2023/09/11 02:21:26;;;;;;;1999.90;999.90;;;22.20;99.90;;;;;;5093544;28;20031;-79
2023/09/11 02:23:52;;;;;;;1999.90;999.90;;;22.00;99.90;;;;;;5081398;28;20012;-80
2023/09/11 02:26:17;;;;;;;1999.90;999.90;;;21.60;99.90;;;;;;5093624;28;20032;-80
2023/09/11 02:28:43;;;;;;;1999.90;999.90;;;21.30;99.90;;;;;;5093491;28;20133;-80
2023/09/11 02:31:09;;;;;;;1999.90;999.90;;;21.00;99.90;;;;;;5093510;28;20043;-74
2023/09/11 02:33:34;;;;;;;1999.90;999.90;;;20.90;99.90;;;;;;5093327;28;20016;-80
2023/09/11 02:36:00;;;;;;;1999.90;999.90;;;20.90;99.90;;;;;;5093281;28;20127;-80
2023/09/11 02:38:26;;;;;;;1999.90;999.90;;;20.80;99.90;;;;;;5093192;28;20028;-80
2023/09/11 02:40:52;;;;;;;1999.90;999.90;;;20.70;99.90;;;;;;5093284;28;20016;-73
2023/09/11 02:43:17;;;;;;;1999.90;999.90;;;20.70;99.90;;;;;;5093460;28;20051;-73
2023/09/11 02:45:44;;;;;;;1999.90;999.90;;;20.50;99.90;;;;;;5093412;28;20472;-80
2023/09/11 02:48:11;;;;;;;1999.90;999.90;;;20.50;99.90;;;;;;5093109;28;20490;-80
2023/09/11 02:50:38;;;;;;;1999.90;999.90;;;20.40;99.90;;;;;;5093020;28;20379;-80
2023/09/11 02:53:08;;;;;;;1999.90;999.90;;;20.40;99.90;;;;;;5093198;28;20058;-74
2023/09/11 02:55:37;;;;;;;1999.90;999.90;;;20.40;99.90;;;;;;5092121;28;20477;-74
2023/09/11 02:58:03;;;;;;;1999.90;999.90;;;20.40;99.90;;;;;;5088614;28;20032;-80
2023/09/11 03:00:29;;;;;;;1999.90;999.90;;;20.40;99.90;;;;;;5075059;28;20111;-74
2023/09/11 03:02:56;;;;;;;1999.90;999.90;;;20.40;99.90;;;;;;5081519;28;20022;-73
2023/09/11 03:05:22;;;;;;;1999.90;999.90;;;20.30;99.90;;;;;;5052667;28;20037;-73
2023/09/11 03:07:47;;;;;;;1999.90;999.90;;;20.20;99.90;;;;;;5066617;28;20039;-71
2023/09/11 03:10:13;;;;;;;1999.90;999.90;;;20.20;99.90;;;;;;5073123;28;20082;-79
2023/09/11 03:12:39;;;;;;;1999.90;999.90;;;20.20;99.90;;;;;;5072702;28;20397;-72
2023/09/11 03:15:05;;;;;;;1999.90;999.90;;;20.10;99.90;;;;;;5078478;28;20035;-78
2023/09/11 03:17:31;;;;;;;1999.90;999.90;;;20.10;99.90;;;;;;5083822;28;20088;-78
2023/09/11 03:19:57;;;;;;;1999.90;999.90;;;20.10;99.90;;;;;;5093474;28;20417;-71
2023/09/11 03:22:23;;;;;;;1999.90;999.90;;;20.10;99.90;;;;;;5096385;28;20065;-73
2023/09/11 03:24:49;;;;;;;1999.90;999.90;;;20.10;99.90;;;;;;5097219;28;20077;-79
2023/09/11 03:27:14;;;;;;;1999.90;999.90;;;20.10;99.90;;;;;;5097041;28;20074;-77
2023/09/11 03:29:40;;;;;;;1999.90;999.90;;;20.10;99.90;;;;;;5096862;28;20031;-79
2023/09/11 03:32:06;;;;;;;1999.90;999.90;;;20.10;99.90;;;;;;5096871;28;20052;-72
2023/09/11 03:34:32;;;;;;;1999.90;999.90;;;20.10;99.90;;;;;;5096307;28;20063;-72
2023/09/11 03:36:57;;;;;;;1999.90;999.90;;;20.00;99.90;;;;;;5096921;28;20112;-78
2023/09/11 03:39:23;;;;;;;1999.90;999.90;;;20.00;99.90;;;;;;5096918;28;20059;-77
2023/09/11 03:41:50;;;;;;;1999.90;999.90;;;19.90;99.90;;;;;;5096745;28;20027;-77
2023/09/11 03:44:15;;;;;;;1999.90;999.90;;;19.80;99.90;;;;;;5096684;28;20025;-70
2023/09/11 03:46:41;;;;;;;1999.90;999.90;;;19.80;99.90;;;;;;5096537;28;20430;-71
2023/09/11 03:49:07;;;;;;;1999.90;999.90;;;19.80;99.90;;;;;;5096586;28;20031;-77
2023/09/11 03:51:32;;;;;;;1999.90;999.90;;;19.70;99.90;;;;;;5096629;28;20031;-71
2023/09/11 03:53:58;;;;;;;1999.90;999.90;;;19.60;99.90;;;;;;5096693;28;20452;-77
2023/09/11 03:56:24;;;;;;;1999.90;999.90;;;19.60;99.90;;;;;;5096527;28;20028;-78
2023/09/11 03:58:51;;;;;;;1999.90;999.90;;;19.70;99.90;;;;;;5087604;28;20465;-71
2023/09/11 04:01:16;;;;;;;1999.90;999.90;;;19.70;99.90;;;;;;5085969;28;20400;-77
2023/09/11 04:03:42;;;;;;;1999.90;999.90;;;19.60;99.90;;;;;;5085223;28;20032;-77
2023/09/11 04:06:08;;;;;;;1999.90;999.90;;;19.50;99.90;;;;;;5080302;28;20036;-77
2023/09/11 04:08:33;;;;;;;1999.90;999.90;;;19.50;99.90;;;;;;5082295;28;20025;-71
2023/09/11 04:11:00;;;;;;;1999.90;999.90;;;19.60;99.90;;;;;;5075930;28;20087;-71
2023/09/11 04:13:26;;;;;;;1999.90;999.90;;;19.50;99.90;;;;;;5075872;28;20020;-71
2023/09/11 04:15:52;;;;;;;1999.90;999.90;;;19.50;99.90;;;;;;5081673;28;20571;-71
2023/09/11 04:18:17;;;;;;;1999.90;999.90;;;19.60;99.90;;;;;;5091950;28;20016;-77
2023/09/11 04:20:43;;;;;;;1999.90;999.90;;;19.60;99.90;;;;;;5075642;28;20442;-78
2023/09/11 04:23:09;;;;;;;1999.90;999.90;;;19.60;99.90;;;;;;5081550;28;20016;-78
2023/09/11 04:25:34;;;;;;;1999.90;999.90;;;19.60;99.90;;;;;;5095851;28;20107;-71
2023/09/11 04:28:00;;;;;;;1999.90;999.90;;;19.60;99.90;;;;;;5096246;28;20032;-78
2023/09/11 04:30:26;;;;;;;1999.90;999.90;;;19.60;99.90;;;;;;5083990;28;20108;-77
2023/09/11 04:32:52;;;;;;;1999.90;999.90;;;19.60;99.90;;;;;;5075620;28;20044;-78
2023/09/11 04:35:18;;;;;;;1999.90;999.90;;;19.60;99.90;;;;;;5075965;28;20033;-79
2023/09/11 04:37:44;;;;;;;1999.90;999.90;;;19.50;99.90;;;;;;5076527;28;20067;-73
2023/09/11 04:40:10;;;;;;;1999.90;999.90;;;19.60;99.90;;;;;;5075414;28;20487;-72
2023/09/11 04:42:36;;;;;;;1999.90;999.90;;;19.60;99.90;;;;;;5075422;28;20017;-71
2023/09/11 04:45:03;;;;;;;1999.90;999.90;;;19.60;99.90;;;;;;5075209;28;20541;-78
2023/09/11 04:47:34;;;;;;;1999.90;999.90;;;19.60;99.90;;;;;;5075441;28;20021;-72
2023/09/11 04:49:59;;;;;;;1999.90;999.90;;;19.70;99.90;;;;;;5075425;28;20024;-71
2023/09/11 04:52:25;;;;;;;1999.90;999.90;;;19.80;99.90;;;;;;5074892;28;20078;-71
2023/09/11 04:54:52;;;;;;;1999.90;999.90;;;19.80;99.90;;;;;;5075001;28;20036;-77
2023/09/11 04:57:18;;;;;;;1999.90;999.90;;;19.70;99.90;;;;;;5078448;28;20039;-78
2023/09/11 04:59:43;;;;;;;1999.90;999.90;;;19.70;99.90;;;;;;5083436;28;20028;-78
2023/09/11 05:02:09;;;;;;;1999.90;999.90;;;19.80;99.90;;;;;;5082163;28;20435;-77
2023/09/11 05:04:35;;;;;;;1999.90;999.90;;;19.90;99.90;;;;;;5091302;28;20119;-71
2023/09/11 05:07:01;;;;;;;1999.90;999.90;;;19.90;99.90;;;;;;5089770;28;20016;-78
2023/09/11 05:09:27;;;;;;;1999.90;999.90;;;20.00;99.90;;;;;;5091039;28;20027;-78
2023/09/11 05:11:52;;;;;;;1999.90;999.90;;;20.00;99.90;;;;;;5080901;28;20027;-78
2023/09/11 05:14:18;;;;;;;1999.90;999.90;;;19.90;99.90;;;;;;5080832;28;20035;-78
2023/09/11 05:16:44;;;;;;;1999.90;999.90;;;20.00;99.90;;;;;;5085365;28;20028;-71
2023/09/11 05:19:09;;;;;;;1999.90;999.90;;;20.00;99.90;;;;;;5090934;28;20099;-72
2023/09/11 05:21:36;;;;;;;1999.90;999.90;;;19.90;99.90;;;;;;5074436;28;20020;-78
2023/09/11 05:24:05;;;;;;;1999.90;999.90;;;20.00;99.90;;;;;;5080214;28;20502;-78
2023/09/11 05:26:31;;;;;;;1999.90;999.90;;;20.00;99.90;;;;;;5094232;28;20032;-77
2023/09/11 05:28:57;;;;;;;1999.90;999.90;;;20.00;99.90;;;;;;5088007;28;20038;-78
2023/09/11 05:31:23;;;;;;;1999.90;999.90;;;20.00;99.90;;;;;;5083140;28;20024;-72
2023/09/11 05:33:48;;;;;;;1999.90;999.90;;;19.90;99.90;;;;;;5083034;28;20031;-72
2023/09/11 05:36:14;;;;;;;1999.90;999.90;;;20.00;99.90;;;;;;5082268;28;20047;-78
2023/09/11 05:38:40;;;;;;;1999.90;999.90;;;19.90;99.90;;;;;;5059187;28;20040;-78
2023/09/11 05:41:06;;;;;;;1999.90;999.90;;;19.90;99.90;;;;;;5056359;28;20021;-79
2023/09/11 05:43:32;;;;;;;1999.90;999.90;;;19.90;99.90;;;;;;5071987;28;20544;-72
2023/09/11 05:45:57;;;;;;;1999.90;999.90;;;19.80;99.90;;;;;;5072908;28;20036;-78
2023/09/11 05:48:23;;;;;;;1999.90;999.90;;;19.90;99.90;;;;;;5074648;28;20024;-72
2023/09/11 05:50:49;;;;;;;1999.90;999.90;;;19.80;99.90;;;;;;5082430;28;20475;-72
2023/09/11 05:53:14;;;;;;;1999.90;999.90;;;19.80;99.90;;;;;;5075018;28;20071;-78
2023/09/11 05:55:40;;;;;;;1999.90;999.90;;;19.80;99.90;;;;;;5084073;28;20130;-70
2023/09/11 05:58:06;;;;;;;1999.90;999.90;;;19.90;99.90;;;;;;5079602;28;20020;-71
2023/09/11 06:00:32;;;;;;;1999.90;999.90;;;19.90;99.90;;;;;;5078433;28;20034;-75
2023/09/11 06:02:58;;;;;;;1999.90;999.90;;;19.90;99.90;;;;;;5068451;28;20021;-76
2023/09/11 06:05:31;;;;;;;1999.90;999.90;;;19.90;99.90;;;;;;5068944;28;20425;-78
2023/09/11 06:07:57;;;;;;;1999.90;999.90;;;20.00;99.90;;;;;;5064147;28;20454;-73
2023/09/11 06:10:23;;;;;;;1999.90;999.90;;;20.00;99.90;;;;;;5067023;28;20036;-78
2023/09/11 06:12:48;;;;;;;1999.90;999.90;;;20.00;99.90;;;;;;5068524;28;20059;-78
2023/09/11 06:15:14;;;;;;;1999.90;999.90;;;20.10;99.90;;;;;;5060366;28;20032;-78
2023/09/11 06:17:40;;;;;;;1999.90;999.90;;;20.20;99.90;;;;;;5069727;28;20079;-78
2023/09/11 06:20:09;;;;;;;1999.90;999.90;;;20.10;99.90;;;;;;5067686;28;20488;-79
2023/09/11 06:22:39;;;;;;;1999.90;999.90;;;20.10;99.90;;;;;;5061748;28;20028;-74
2023/09/11 06:25:05;;;;;;;1999.90;999.90;;;20.00;99.90;;;;;;5059925;28;20033;-74
2023/09/11 06:27:31;;;;;;;1999.90;999.90;;;20.10;99.90;;;;;;5064599;28;20484;-79
2023/09/11 06:29:57;;;;;;;1999.90;999.90;;;20.10;99.90;;;;;;5062308;28;20029;-73
2023/09/11 06:32:23;;;;;;;1999.90;999.90;;;20.10;99.90;;;;;;5053310;28;20530;-78
2023/09/11 06:34:48;;;;;;;1999.90;999.90;;;20.10;99.90;;;;;;5058198;28;20040;-74
2023/09/11 06:37:14;;;;;;;1999.90;999.90;;;20.10;99.90;;;;;;5054334;28;20115;-74
2023/09/11 06:39:39;;;;;;;1999.90;999.90;;;20.20;99.90;;;;;;5056894;28;20037;-79
2023/09/11 06:42:05;;;;;;;1999.90;999.90;;;20.20;99.90;;;;;;5063352;28;20021;-78
2023/09/11 06:44:31;;;;;;;1999.90;999.90;;;20.30;99.90;;;;;;5063102;28;20036;-74
2023/09/11 06:46:57;;;;;;;1999.90;999.90;;;20.30;99.90;;;;;;5065795;28;20024;-74
2023/09/11 06:49:22;;;;;;;1999.90;999.90;;;20.40;99.90;;;;;;5065177;28;20102;-73
2023/09/11 06:51:48;;;;;;;1999.90;999.90;;;20.40;99.90;;;;;;5067626;28;20078;-79
2023/09/11 06:54:14;;;;;;;1999.90;999.90;;;20.50;99.90;;;;;;5065011;28;20529;-74
2023/09/11 06:56:42;;;;;;;1999.90;999.90;;;20.40;99.90;;;;;;5068215;28;20028;-79
2023/09/11 06:59:08;;;;;;;1999.90;999.90;;;20.30;99.90;;;;;;5056998;28;20068;-74
2023/09/11 07:01:38;;;;;;;1999.90;999.90;;;20.40;99.90;;;;;;5058716;28;20032;-74
2023/09/11 07:04:10;;;;;;;1999.90;999.90;;;20.40;99.90;;;;;;5067605;28;20111;-74
2023/09/11 07:06:40;;;;;;;1999.90;999.90;;;20.30;99.90;;;;;;5065559;28;20058;-79
2023/09/11 07:09:07;;;;;;;1999.90;999.90;;;20.30;99.90;;;;;;5070597;28;20025;-74
2023/09/11 07:11:33;;;;;;;1999.90;999.90;;;20.40;99.90;;;;;;5070636;28;20028;-74
2023/09/11 07:13:59;;;;;;;1999.90;999.90;;;20.50;99.90;;;;;;5063803;28;20487;-75
2023/09/11 07:16:25;;;;;;;1999.90;999.90;;;20.50;99.90;;;;;;5053143;28;20037;-74
2023/09/11 07:18:51;;;;;;;1999.90;999.90;;;20.70;99.90;;;;;;5044142;28;20032;-79
2023/09/11 07:21:17;;;;;;;1999.90;999.90;;;20.70;99.90;;;;;;5049796;28;20040;-79
2023/09/11 07:23:42;;;;;;;1999.90;999.90;;;20.80;99.90;;;;;;5050794;28;20033;-78
2023/09/11 07:26:08;;;;;;;1999.90;999.90;;;20.70;99.90;;;;;;5040782;28;20136;-74
2023/09/11 07:28:53;;;;;;;1999.90;999.90;;;20.80;99.90;;;;;;5043550;28;20376;-74
2023/09/11 07:31:18;;;;;;;1999.90;999.90;;;20.80;99.90;;;;;;5044551;28;20028;-75
2023/09/11 07:33:44;;;;;;;1999.90;999.90;;;20.80;99.90;;;;;;5043166;28;20037;-74
2023/09/11 07:36:10;;;;;;;1999.90;999.90;;;20.80;99.90;;;;;;5048676;28;20500;-79
2023/09/11 07:38:35;;;;;;;1999.90;999.90;;;20.80;99.90;;;;;;5049478;28;20033;-74
2023/09/11 07:41:01;;;;;;;1999.90;999.90;;;20.90;99.90;;;;;;5059525;28;20033;-79
2023/09/11 07:43:26;;;;;;;1999.90;999.90;;;20.90;99.90;;;;;;5069684;28;20029;-74
2023/09/11 07:45:52;;;;;;;1999.90;999.90;;;21.00;99.90;;;;;;5065400;28;20487;-79
2023/09/11 07:48:17;;;;;;;1999.90;999.90;;;21.00;99.90;;;;;;5069756;28;20090;-81
2023/09/11 07:50:43;;;;;;;1999.90;999.90;;;21.20;99.90;;;;;;5068680;28;20020;-79
2023/09/11 07:53:08;;;;;;;1999.90;999.90;;;22.20;99.90;;;;;;5056867;28;20439;-75
2023/09/11 07:55:37;;;;;;;1999.90;999.90;;;25.00;99.90;;;;;;5064046;28;20035;-79
2023/09/11 07:58:03;;;;;;;1999.90;999.90;;;26.60;99.90;;;;;;5072646;28;20505;-80
2023/09/11 08:00:30;;;;;;;1999.90;999.90;;;27.40;99.90;;;;;;5067130;28;20183;-80
2023/09/11 08:02:56;;;;;;;1999.90;999.90;;;29.50;99.90;;;;;;5051407;28;20024;-80
2023/09/11 08:05:22;;;;;;;1999.90;999.90;;;30.30;99.90;;;;;;5047148;28;20482;-75
2023/09/11 08:07:50;;;;;;;1999.90;999.90;;;31.60;99.90;;;;;;5049158;28;20017;-79
2023/09/11 08:10:16;;;;;;;1999.90;999.90;;;31.40;99.90;;;;;;5051984;28;20029;-79
2023/09/11 08:12:42;;;;;;;1999.90;999.90;;;31.80;99.90;;;;;;5050542;28;20131;-75
2023/09/11 08:15:08;;;;;;;1999.90;999.90;;;32.60;99.90;;;;;;5051640;28;20477;-79
2023/09/11 08:17:33;;;;;;;1999.90;999.90;;;33.00;99.90;;;;;;5048872;28;20488;-74
2023/09/11 08:19:59;;;;;;;1999.90;999.90;;;32.70;99.90;;;;;;5051910;28;20044;-74
2023/09/11 08:22:25;;;;;;;1999.90;999.90;;;32.70;99.90;;;;;;5046468;28;20029;-78
2023/09/11 08:24:50;;;;;;;1999.90;999.90;;;33.50;99.90;;;;;;5044564;28;20446;-78
2023/09/11 08:27:16;;;;;;;1999.90;999.90;;;33.70;99.90;;;;;;5055042;28;20021;-79
2023/09/11 08:29:42;;;;;;;1999.90;999.90;;;33.70;99.90;;;;;;5039907;28;20428;-79
2023/09/11 08:32:08;;;;;;;1999.90;999.90;;;34.10;99.90;;;;;;5046826;28;20021;-76
2023/09/11 08:34:33;;;;;;;1999.90;999.90;;;33.70;99.90;;;;;;5046786;28;20032;-76
2023/09/11 08:37:00;;;;;;;1999.90;999.90;;;31.80;99.90;;;;;;5051673;28;20055;-79
2023/09/11 08:39:25;;;;;;;1999.90;999.90;;;31.00;99.90;;;;;;5051470;28;20404;-79
2023/09/11 08:41:52;;;;;;;1999.90;999.90;;;31.90;99.90;;;;;;5051697;28;20087;-79
2023/09/11 08:44:17;;;;;;;1999.90;999.90;;;32.60;99.90;;;;;;5052702;28;20024;-78
2023/09/11 08:46:45;;;;;;;1999.90;999.90;;;32.00;99.90;;;;;;5044159;28;20601;-78
2023/09/11 08:49:16;;;;;;;1999.90;999.90;;;32.60;99.90;;;;;;5041241;28;20025;-76
2023/09/11 08:51:53;;;;;;;1999.90;999.90;;;33.00;99.90;;;;;;5045803;28;20014;-78
2023/09/11 08:54:24;;;;;;;1999.90;999.90;;;33.60;99.90;;;;;;5044125;28;20082;-76
2023/09/11 08:56:50;;;;;;;1999.90;999.90;;;33.70;99.90;;;;;;5050997;28;20020;-75
2023/09/11 08:59:20;;;;;;;1999.90;999.90;;;33.40;99.90;;;;;;5059395;28;20032;-75
2023/09/11 09:01:47;;;;;;;1999.90;999.90;;;33.70;99.90;;;;;;5055442;28;20025;-78
2023/09/11 09:04:15;;;;;;;1999.90;999.90;;;33.30;99.90;;;;;;5065719;28;20068;-75
2023/09/11 09:06:42;;;;;;;1999.90;999.90;;;31.50;99.90;;;;;;5051212;28;20028;-77
2023/09/11 09:09:08;;;;;;;1999.90;999.90;;;31.50;99.90;;;;;;5048552;28;20422;-74
2023/09/11 09:11:34;;;;;;;1999.90;999.90;;;30.00;99.90;;;;;;5051399;28;20100;-78
2023/09/11 09:14:06;;;;;;;1999.90;999.90;;;29.80;99.90;;;;;;5053837;28;20051;-75
2023/09/11 09:16:32;;;;;;;1999.90;999.90;;;29.70;99.90;;;;;;5060484;28;20441;-76
2023/09/11 09:18:57;;;;;;;1999.90;999.90;;;30.60;99.90;;;;;;5050629;28;20036;-75
2023/09/11 09:21:27;;;;;;;1999.90;999.90;;;30.60;99.90;;;;;;5050610;28;20078;-76
2023/09/11 09:23:53;;;;;;;1999.90;999.90;;;30.70;99.90;;;;;;5050881;28;20595;-74
2023/09/11 09:26:19;;;;;;;1999.90;999.90;;;30.50;99.90;;;;;;5050442;28;20154;-75
2023/09/11 09:28:51;;;;;;;1999.90;999.90;;;30.90;99.90;;;;;;5054427;28;20020;-75
2023/09/11 09:31:24;;;;;;;1999.90;999.90;;;31.80;99.90;;;;;;5069972;28;20017;-77
2023/09/11 09:33:55;;;;;;;1999.90;999.90;;;31.50;99.90;;;;;;5050289;28;20033;-75
2023/09/11 09:36:21;;;;;;;1999.90;999.90;;;31.50;99.90;;;;;;5051411;28;20033;-75
2023/09/11 09:38:47;;;;;;;1999.90;999.90;;;30.70;99.90;;;;;;5049523;28;20483;-77
2023/09/11 09:41:13;;;;;;;1999.90;999.90;;;29.90;99.90;;;;;;5050837;28;20033;-77
2023/09/11 09:43:39;;;;;;;1999.90;999.90;;;29.40;99.90;;;;;;5050895;28;20021;-77
2023/09/11 09:46:20;;;;;;;1999.90;999.90;;;29.10;99.90;;;;;;5051299;28;20051;-77
2023/09/11 09:48:46;;;;;;;1999.90;999.90;;;28.30;99.90;;;;;;5059442;28;20013;-75
2023/09/11 09:51:11;;;;;;;1999.90;999.90;;;28.80;99.90;;;;;;5050364;28;20136;-74
2023/09/11 09:53:42;;;;;;;1999.90;999.90;;;29.40;99.90;;;;;;5056822;28;20476;-78
2023/09/11 09:56:10;;;;;;;1999.90;999.90;;;29.50;99.90;;;;;;5050336;28;20024;-78
2023/09/11 09:58:38;;;;;;;1999.90;999.90;;;29.60;99.90;;;;;;5061066;28;20154;-78
2023/09/11 10:01:06;;;;;;;1999.90;999.90;;;30.20;99.90;;;;;;5060915;28;20083;-78
2023/09/11 10:03:39;;;;;;;1999.90;999.90;;;30.50;99.90;;;;;;5052055;28;20538;-78
2023/09/11 10:06:27;;;;;;;1999.90;999.90;;;30.60;99.90;;;;;;5051167;28;20025;-78
2023/09/11 10:09:10;;;;;;;1999.90;999.90;;;30.40;99.90;;;;;;5050178;28;20057;-77
2023/09/11 10:11:37;;;;;;;1999.90;999.90;;;30.50;99.90;;;;;;5051068;28;20078;-77
2023/09/11 10:14:05;;;;;;;1999.90;999.90;;;30.10;99.90;;;;;;5049997;28;20021;-77
2023/09/11 10:16:31;;;;;;;1999.90;999.90;;;30.10;99.90;;;;;;5050598;28;20392;-77
2023/09/11 10:18:58;;;;;;;1999.90;999.90;;;29.80;99.90;;;;;;5050720;28;20032;-75
2023/09/11 10:21:25;;;;;;;1999.90;999.90;;;28.70;99.90;;;;;;5049550;28;20392;-77
2023/09/11 10:23:52;;;;;;;1999.90;999.90;;;28.20;99.90;;;;;;5050370;28;20017;-76
2023/09/11 10:26:28;;;;;;;1999.90;999.90;;;28.00;99.90;;;;;;5058969;28;20104;-76
2023/09/11 10:28:58;;;;;;;1999.90;999.90;;;27.60;99.90;;;;;;5050027;28;20028;-76
2023/09/11 10:31:29;;;;;;;1999.90;999.90;;;27.30;99.90;;;;;;5058157;28;20040;-78
2023/09/11 10:33:57;;;;;;;1999.90;999.90;;;27.10;99.90;;;;;;5047439;28;20037;-78
2023/09/11 10:36:25;;;;;;;1999.90;999.90;;;26.90;99.90;;;;;;5050631;28;20044;-80
2023/09/11 10:38:56;;;;;;;1999.90;999.90;;;26.40;99.90;;;;;;5054253;28;20033;-80
2023/09/11 10:41:22;;;;;;;1999.90;999.90;;;26.30;99.90;;;;;;5037023;28;20052;-76
2023/09/11 10:43:49;;;;;;;1999.90;999.90;;;26.50;99.90;;;;;;5039909;28;20508;-80
2023/09/11 10:46:31;;;;;;;1999.90;999.90;;;27.00;99.90;;;;;;5033974;28;20035;-80
2023/09/11 10:48:59;;;;;;;1999.90;999.90;;;26.90;99.90;;;;;;5032075;28;20167;-76
2023/09/11 10:51:27;;;;;;;1999.90;999.90;;;26.60;99.90;;;;;;5042124;28;20099;-76
2023/09/11 10:53:52;;;;;;;1999.90;999.90;;;26.40;99.90;;;;;;5044412;28;20883;-76
2023/09/11 10:56:18;;;;;;;1999.90;999.90;;;26.10;99.90;;;;;;5054080;28;20078;-76
2023/09/11 10:58:44;;;;;;;1999.90;999.90;;;25.90;99.90;;;;;;5050614;28;20065;-79
2023/09/11 11:01:13;;;;;;;1999.90;999.90;;;25.90;99.90;;;;;;5053622;28;20032;-79
2023/09/11 11:03:41;;;;;;;1999.90;999.90;;;25.70;99.90;;;;;;5049190;28;20072;-78
2023/09/11 11:06:12;;;;;;;1999.90;999.90;;;25.70;99.90;;;;;;5053153;28;20555;-78
2023/09/11 11:08:39;;;;;;;1999.90;999.90;;;25.70;99.90;;;;;;5049334;28;20116;-75
2023/09/11 11:11:17;;;;;;;1999.90;999.90;;;25.90;99.90;;;;;;5049312;28;20064;-75
2023/09/11 11:14:13;;;;;;;1999.90;999.90;;;26.00;99.90;;;;;;5050195;28;20033;-76
2023/09/11 11:16:39;;;;;;;1999.90;999.90;;;26.00;99.90;;;;;;5054302;28;20082;-79
2023/09/11 11:19:05;;;;;;;1999.90;999.90;;;25.80;99.90;;;;;;5055882;28;20400;-79
2023/09/11 11:21:40;;;;;;;1999.90;999.90;;;25.80;99.90;;;;;;5051525;28;20036;-76
2023/09/11 11:24:09;;;;;;;1999.90;999.90;;;25.50;99.90;;;;;;5051724;28;20024;-76
2023/09/11 11:26:40;;;;;;;1999.90;999.90;;;25.40;99.90;;;;;;5055609;28;20060;-76
2023/09/11 11:29:06;;;;;;;1999.90;999.90;;;25.30;99.90;;;;;;5053149;28;20087;-76
2023/09/11 11:31:32;;;;;;;1999.90;999.90;;;25.20;99.90;;;;;;5061993;28;20044;-77
2023/09/11 11:33:59;;;;;;;1999.90;999.90;;;25.20;99.90;;;;;;5053753;28;20033;-76
2023/09/11 11:36:27;;;;;;;1999.90;999.90;;;25.30;99.90;;;;;;5060914;28;20028;-76
2023/09/11 11:38:56;;;;;;;1999.90;999.90;;;25.30;99.90;;;;;;5054512;28;20377;-75
2023/09/11 11:41:22;;;;;;;1999.90;999.90;;;25.40;99.90;;;;;;5054735;28;20021;-76
2023/09/11 11:43:49;;;;;;;1999.90;999.90;;;25.40;99.90;;;;;;5053573;28;20464;-79
2023/09/11 11:46:15;;;;;;;1999.90;999.90;;;25.00;99.90;;;;;;5051952;28;20404;-75
2023/09/11 11:48:42;;;;;;;1999.90;999.90;;;24.70;99.90;;;;;;5062746;28;20455;-78
2023/09/11 11:51:08;;;;;;;1999.90;999.90;;;24.60;99.90;;;;;;5047292;28;20029;-78
2023/09/11 11:53:34;;;;;;;1999.90;999.90;;;24.80;99.90;;;;;;5044134;28;20079;-78
2023/09/11 11:56:03;;;;;;;1999.90;999.90;;;24.90;99.90;;;;;;5047190;28;20446;-79
2023/09/11 11:58:28;;;;;;;1999.90;999.90;;;25.00;99.90;;;;;;5049852;28;20028;-79